CKT5 weather

Hartney Airport
Hartney, Manitoba, Canada

Public forecast

Using degrees Celsius for public forecast. Weather courtesy of forecast.io.

Closest aviation weather report (METAR) to Hartney Airport

Closest report is Brandon Municipal Airport, 36.1 nm (66.8 km) NE. Retrieved 2019/10/19 11:00 UTC (5 minutes ago):

CYBR 191100Z 25009KT 15SM SKC 01/00 A2949 RMK SLP001

Closest aviation forecast (TAF) to Hartney Airport

Closest forecast is Brandon Municipal Airport, 36.1 nm (66.8 km) NE. Retrieved 2019/10/19 06:45 UTC (4 hours ago):

TAF TAF CYBR 190544Z 1906/1918 28010KT P6SM SKC FM191500 27010KT P6SM SCT080 BKN180 RMK NXT FCST BY 191200Z